Current Weather

Aeroparque Jorge Newbery

Aeroparque Jorge Newbery, Argentina (SABE)

Report from: Monday, February 6, 2023 3:00 AM -03
Current time: Monday, February 6, 2023 3:34 AM -03

Nearby weather
Weather history
Weather forecast

Temperature23.0°C (73.4°F)
Dew point16.0°C (60.8°F)
Winds 5 kts (2.6 m/s, 5.8 mph) Northwest (310°)
Clouds Sky clear
Altimeter29.80 in.Hg (1009 mB)
Relative humidity65 %
Density altitude1,324 ft. (404 m)
Remarks Ceiling and visibility OK
No significant changes expected in the next two hours
Flight conditions Visual Meteorological Conditions
Raw dataSABE 060600Z 31005KT CAVOK 23/16 Q1009 NOSIG RMK PP000
An error has occurred. This application may no longer respond until reloaded. Reload 🗙